El Plumerillo, Argentina
Current Conditions -  °F | °C
As of 8:00 AM on Friday 24 Oct 2014 (Local Time) from SAME Reporting Station
Clear Clear  
Wind Chill: 23°   Ceiling: Unl
Heat Index: 23°   Visibility: 6mi
Dew Point: 15°   Wind: 12mph
Humidity: 61%   Direction: 180°S
Pressure: 30.03"   Gusts: NA
Location:  32.83°S, 68.78°W
Report Text: SAME 241100Z 18010KT CAVOK 23/15 Q1017
Loading
Personal Weather Stations






























Interactive Weather Map
Tropical Storm Tracking
New forecast layout! Learn more

10-Day Weather Forecast

Advertisements
Track Severe Weather on mobile